This is the latest recevied weather packets stored in our database for station/object KB1WCR. If no packets are shown the sender has not sent any weather packets the latest 10 day(s).
| Time | Temp. | Humidity | Pressure | Rain* | Wind** | Luminosity | Snow |
|---|---|---|---|---|---|---|---|
| 1777895425 | 8.33° C | 74% | 1008.7 hPa | 0 mm | - | 122 W/m² | - |
| 1777895122 | 8.33° C | 75% | 1008.6 hPa | 0 mm | - | 123 W/m² | - |
| 1777894820 | 8.33° C | 73% | 1008.9 hPa | 0 mm | - | 115 W/m² | - |
| 1777894516 | 7.78° C | 72% | 1008.6 hPa | 0 mm | - | 126 W/m² | - |
| 1777894214 | 7.78° C | 72% | 1008.8 hPa | 0 mm | - | 135 W/m² | - |
| 1777893910 | 8.33° C | 71% | 1008.6 hPa | 0 mm | - | 268 W/m² | - |
| 1777893607 | 7.78° C | 74% | 1008.8 hPa | 0 mm | - | 212 W/m² | - |
| 1777893303 | 7.22° C | 76% | 1008.6 hPa | 0 mm | - | 180 W/m² | - |
| 1777892999 | 6.67° C | 77% | 1008.7 hPa | 0 mm | - | 182 W/m² | - |
| 1777892697 | 7.22° C | 78% | 1008.6 hPa | 0 mm | - | 155 W/m² | - |
| 1777892392 | 6.11° C | 84% | 1008.5 hPa | 0 mm | - | 126 W/m² | - |
| 1777892088 | 4.44° C | 87% | 1008.6 hPa | 0 mm | - | 113 W/m² | - |
| 1777891786 | 3.33° C | 89% | 1008.6 hPa | 0 mm | - | 101 W/m² | - |
| 1777891483 | 3.33° C | 90% | 1008.8 hPa | 0 mm | - | 44 W/m² | - |
| 1777891178 | 3.89° C | 89% | 1008.7 hPa | 0 mm | - | 38 W/m² | - |
| 1777890878 | 3.33° C | 89% | 1008.6 hPa | 0 mm | - | 37 W/m² | - |
| 1777890575 | 3.33° C | 89% | 1008.6 hPa | 0 mm | - | 51 W/m² | - |
| 1777890270 | 3.33° C | 88% | 1008.5 hPa | 0 mm | - | 51 W/m² | - |
| 1777889967 | 3.33° C | 91% | 1008.4 hPa | 0 mm | - | 44 W/m² | - |
| 1777889664 | 2.22° C | 92% | 1008.5 hPa | 0 mm | - | 45 W/m² | - |
| 1777889361 | 2.22° C | 92% | 1008.4 hPa | 0 mm | - | 33 W/m² | - |
| 1777889059 | 2.22° C | 90% | 1008.5 hPa | 0 mm | - | 22 W/m² | - |
| 1777888756 | 2.22° C | 91% | 1008.6 hPa | 0 mm | - | 18 W/m² | - |
| 1777888453 | 2.22° C | 91% | 1008.3 hPa | 0 mm | - | 15 W/m² | - |
| 1777888148 | 2.22° C | 90% | 1008.3 hPa | 0 mm | - | 12 W/m² | - |
* Rain latest hour (hover to see other rain measurements)
** Current wind speed in m/s (hover to see current wind gust speed)